Time;durP1;ratioP1;P1;durP2;ratioP2;P2;SDS_P1;SDS_P2;PMS_P1;PMS_P2;Temp;Humidity;BMP_temperature;BMP_pressure;BME280_temperature;BME280_humidity;BME280_pressure;Samples;Min_cycle;Max_cycle;Signal;HPM_P1;HPM_P2
2021/06/13 00:01:09;;;;;;;47.45;37.47;;;25.50;90.90;;;;;;5093355;28;20043;-84
2021/06/13 00:03:36;;;;;;;47.05;37.92;;;25.50;91.00;;;;;;5075252;28;20032;-83
2021/06/13 00:06:03;;;;;;;47.22;36.97;;;25.50;91.00;;;;;;5075458;28;20390;-83
2021/06/13 00:08:28;;;;;;;46.50;38.00;;;25.50;91.00;;;;;;5074543;28;20044;-83
2021/06/13 00:10:55;;;;;;;47.40;37.08;;;25.50;91.00;;;;;;5094509;28;20032;-83
2021/06/13 00:13:21;;;;;;;46.10;37.22;;;25.50;91.00;;;;;;5095651;28;20063;-83
2021/06/13 00:15:46;;;;;;;46.00;37.13;;;25.50;91.00;;;;;;5095533;28;20105;-83
2021/06/13 00:18:12;;;;;;;46.10;37.15;;;25.50;91.00;;;;;;5078895;28;20032;-84
2021/06/13 00:20:38;;;;;;;44.67;36.08;;;25.50;91.00;;;;;;5078720;28;20028;-83
2021/06/13 00:23:04;;;;;;;45.67;37.25;;;25.50;91.00;;;;;;5097285;28;20432;-83
2021/06/13 00:25:29;;;;;;;46.42;36.50;;;25.50;91.00;;;;;;5078455;28;20044;-83
2021/06/13 00:27:55;;;;;;;47.50;37.42;;;25.50;91.00;;;;;;5095497;28;20351;-83
2021/06/13 00:30:22;;;;;;;44.75;36.75;;;25.50;91.10;;;;;;5078388;28;20028;-83
2021/06/13 00:32:47;;;;;;;48.33;37.83;;;25.50;91.10;;;;;;5095611;28;20107;-83
2021/06/13 00:35:14;;;;;;;44.60;35.60;;;25.50;91.10;;;;;;5096840;28;20107;-83
2021/06/13 00:37:40;;;;;;;46.92;38.05;;;25.50;91.10;;;;;;5094912;28;20017;-83
2021/06/13 00:40:07;;;;;;;45.33;37.20;;;25.50;91.10;;;;;;5078652;28;20028;-83
2021/06/13 00:42:33;;;;;;;42.35;35.40;;;25.40;91.10;;;;;;5077938;28;20035;-83
2021/06/13 00:44:59;;;;;;;47.00;37.15;;;25.50;91.10;;;;;;5096456;28;20428;-83
2021/06/13 00:47:24;;;;;;;43.55;35.47;;;25.50;91.10;;;;;;5078173;28;20046;-84
2021/06/13 00:49:50;;;;;;;44.72;35.75;;;25.40;91.10;;;;;;5078250;28;20036;-83
2021/06/13 00:52:16;;;;;;;43.13;35.72;;;25.40;91.10;;;;;;5095038;28;20028;-83
2021/06/13 00:54:43;;;;;;;43.55;34.47;;;25.40;91.10;;;;;;5096961;28;20032;-83
2021/06/13 00:57:09;;;;;;;42.72;34.80;;;25.40;91.10;;;;;;5078402;28;20028;-83
2021/06/13 00:59:35;;;;;;;43.83;34.97;;;25.40;91.10;;;;;;5078056;28;20115;-83
2021/06/13 01:02:00;;;;;;;42.17;35.63;;;25.40;91.10;;;;;;5078448;28;20452;-84
2021/06/13 01:04:26;;;;;;;40.28;33.13;;;25.40;91.10;;;;;;5079383;28;20521;-83
2021/06/13 01:07:09;;;;;;;41.03;33.50;;;25.40;91.10;;;;;;5088021;28;20433;-83
2021/06/13 01:09:44;;;;;;;42.03;33.50;;;25.40;91.10;;;;;;5102693;28;20040;-83
2021/06/13 01:12:36;;;;;;;41.10;32.97;;;25.40;91.10;;;;;;5102352;28;20024;-83
2021/06/13 01:15:15;;;;;;;40.72;33.13;;;25.50;91.10;;;;;;5096014;28;20024;-82
2021/06/13 01:17:41;;;;;;;39.15;31.27;;;25.40;91.10;;;;;;5095161;28;20034;-83
2021/06/13 01:20:25;;;;;;;39.85;31.55;;;25.40;91.10;;;;;;5094609;28;20115;-83
2021/06/13 01:23:16;;;;;;;39.40;33.15;;;25.40;91.10;;;;;;5095053;28;20028;-83
2021/06/13 01:25:48;;;;;;;39.55;31.15;;;25.40;91.20;;;;;;5080545;28;20063;-83
2021/06/13 01:28:32;;;;;;;37.55;30.38;;;25.40;91.20;;;;;;5095474;28;20055;-83
2021/06/13 01:30:59;;;;;;;36.75;29.30;;;25.40;91.20;;;;;;5095322;28;20024;-83
2021/06/13 01:33:25;;;;;;;33.60;28.35;;;25.40;91.20;;;;;;5096261;28;20032;-83
2021/06/13 01:35:55;;;;;;;35.97;29.85;;;25.40;91.20;;;;;;5094207;28;20051;-82
2021/06/13 01:38:21;;;;;;;34.47;28.95;;;25.40;91.20;;;;;;5093647;28;20079;-85
2021/06/13 01:40:47;;;;;;;34.10;27.77;;;25.40;91.20;;;;;;5077312;28;20028;-83
2021/06/13 01:43:15;;;;;;;34.33;27.27;;;25.40;91.20;;;;;;5077155;28;20025;-83
2021/06/13 01:45:43;;;;;;;33.17;26.88;;;25.40;91.20;;;;;;5094867;28;20059;-83
2021/06/13 01:48:12;;;;;;;32.20;26.38;;;25.40;91.20;;;;;;5060564;28;20039;-82
2021/06/13 01:50:38;;;;;;;30.75;26.02;;;25.40;91.20;;;;;;5093237;28;20385;-83
2021/06/13 01:53:12;;;;;;;30.42;25.10;;;25.40;91.20;;;;;;5076764;28;20473;-83
2021/06/13 01:55:40;;;;;;;30.92;26.15;;;25.40;91.20;;;;;;5093430;28;20040;-84
2021/06/13 01:58:08;;;;;;;28.88;24.23;;;25.40;91.20;;;;;;5077028;28;20036;-84
2021/06/13 02:00:37;;;;;;;29.38;24.20;;;25.40;91.20;;;;;;5093298;28;20059;-84
2021/06/13 02:03:03;;;;;;;30.55;24.88;;;25.40;91.20;;;;;;5093773;28;20028;-84
2021/06/13 02:05:30;;;;;;;30.58;23.85;;;25.40;91.20;;;;;;5094121;28;20456;-84
2021/06/13 02:07:57;;;;;;;28.83;23.52;;;25.30;91.20;;;;;;5076354;28;20049;-83
2021/06/13 02:10:24;;;;;;;28.42;23.15;;;25.30;91.20;;;;;;5093427;28;20081;-83
2021/06/13 02:12:51;;;;;;;26.00;22.67;;;25.40;91.20;;;;;;5094470;28;20024;-83
2021/06/13 02:15:21;;;;;;;27.08;22.25;;;25.30;91.20;;;;;;5076645;28;20036;-84
2021/06/13 02:17:48;;;;;;;25.58;21.15;;;25.30;91.40;;;;;;5093184;28;20054;-84
2021/06/13 02:20:17;;;;;;;26.27;21.85;;;25.30;91.20;;;;;;5076645;28;20028;-84
2021/06/13 02:22:43;;;;;;;25.15;20.85;;;25.30;91.20;;;;;;5076602;28;20090;-83
2021/06/13 02:25:10;;;;;;;23.92;19.80;;;25.30;91.20;;;;;;5093158;28;20492;-83
2021/06/13 02:27:37;;;;;;;24.85;20.30;;;25.40;91.20;;;;;;5076062;28;20028;-83
2021/06/13 02:30:06;;;;;;;23.08;20.10;;;25.30;91.20;;;;;;5093129;28;20036;-83
2021/06/13 02:32:34;;;;;;;25.02;20.05;;;25.30;91.20;;;;;;5093223;28;20074;-83
2021/06/13 02:35:02;;;;;;;24.42;19.88;;;25.30;91.20;;;;;;5092882;28;20034;-82
2021/06/13 02:37:30;;;;;;;20.63;17.88;;;25.30;91.20;;;;;;5092274;28;20024;-83
2021/06/13 02:39:56;;;;;;;23.17;19.20;;;25.30;91.20;;;;;;5093000;28;20028;-82
2021/06/13 02:42:22;;;;;;;22.05;17.08;;;25.30;91.20;;;;;;5092675;28;20028;-83
2021/06/13 02:44:48;;;;;;;20.85;17.55;;;25.30;91.10;;;;;;5092760;28;20039;-83
2021/06/13 02:47:14;;;;;;;21.25;17.13;;;25.30;91.10;;;;;;5076834;28;20485;-82
2021/06/13 02:49:40;;;;;;;20.65;17.13;;;25.30;91.10;;;;;;5107501;28;20028;-82
2021/06/13 02:52:22;;;;;;;20.05;16.13;;;25.30;91.10;;;;;;5099416;28;20028;-83
2021/06/13 02:54:49;;;;;;;19.27;15.60;;;25.30;91.10;;;;;;5093913;28;20035;-83
2021/06/13 02:57:23;;;;;;;17.55;15.45;;;25.30;91.10;;;;;;5076086;28;20523;-84
2021/06/13 02:59:50;;;;;;;;;;;25.30;91.10;;;;;;5092955;28;20111;-83
2021/06/13 03:02:23;;;;;;;18.88;16.40;;;25.30;91.10;;;;;;5094108;28;19908;-83
2021/06/13 03:04:51;;;;;;;17.85;14.80;;;25.30;91.20;;;;;;5093365;28;20043;-83
2021/06/13 03:07:18;;;;;;;19.65;15.02;;;25.30;91.20;;;;;;5092577;28;20047;-83
2021/06/13 03:09:45;;;;;;;17.65;14.68;;;25.30;91.20;;;;;;5076261;28;20032;-82
2021/06/13 03:12:13;;;;;;;18.13;14.40;;;25.30;91.20;;;;;;5093231;28;20028;-82
2021/06/13 03:14:41;;;;;;;15.73;13.43;;;25.30;91.20;;;;;;5092675;28;20077;-84
2021/06/13 03:17:10;;;;;;;17.38;13.88;;;25.30;91.20;;;;;;5076483;28;20500;-83
2021/06/13 03:19:40;;;;;;;15.98;13.30;;;25.30;91.20;;;;;;5075448;28;20024;-83
2021/06/13 03:22:06;;;;;;;15.27;13.10;;;25.30;91.10;;;;;;5092861;28;20042;-83
2021/06/13 03:24:35;;;;;;;15.85;12.98;;;25.30;91.10;;;;;;5092251;28;20020;-84
2021/06/13 03:27:02;;;;;;;16.35;12.32;;;25.30;91.20;;;;;;5093443;28;20043;-83
2021/06/13 03:29:29;;;;;;;15.45;12.00;;;25.30;91.20;;;;;;5092246;28;20119;-83
2021/06/13 03:31:55;;;;;;;14.00;12.35;;;25.30;91.10;;;;;;5091971;28;20111;-83
2021/06/13 03:34:21;;;;;;;14.55;11.70;;;25.30;91.10;;;;;;5093440;28;20027;-84
2021/06/13 03:36:49;;;;;;;13.82;11.20;;;25.30;91.10;;;;;;5075332;28;20028;-83
2021/06/13 03:39:16;;;;;;;13.88;11.07;;;25.30;91.10;;;;;;5093372;28;20024;-83
2021/06/13 03:41:42;;;;;;;12.93;11.35;;;25.30;91.10;;;;;;5075328;28;20124;-84
2021/06/13 03:44:09;;;;;;;14.50;11.20;;;25.30;91.10;;;;;;5092456;28;20035;-83
2021/06/13 03:46:37;;;;;;;12.77;10.70;;;25.30;91.10;;;;;;5062923;28;20045;-84
2021/06/13 03:49:05;;;;;;;13.27;10.65;;;25.30;91.10;;;;;;5079855;28;20032;-84
2021/06/13 03:51:31;;;;;;;11.95;10.15;;;25.30;91.10;;;;;;5096387;28;20052;-84
2021/06/13 03:53:58;;;;;;;11.20;9.68;;;25.30;91.10;;;;;;5095826;28;20055;-84
2021/06/13 03:56:27;;;;;;;11.23;9.32;;;25.20;91.10;;;;;;5096130;28;20035;-83
2021/06/13 03:58:54;;;;;;;11.02;9.65;;;25.20;91.10;;;;;;5096066;28;20035;-83
2021/06/13 04:01:22;;;;;;;10.45;9.13;;;25.20;91.10;;;;;;5096144;28;20028;-83
2021/06/13 04:03:50;;;;;;;9.63;8.52;;;25.30;91.10;;;;;;5078492;28;20036;-83
2021/06/13 04:06:20;;;;;;;9.52;8.40;;;25.20;91.10;;;;;;5096094;28;20032;-83
2021/06/13 04:08:46;;;;;;;11.35;9.15;;;25.20;91.10;;;;;;5095375;28;20147;-84
2021/06/13 04:11:12;;;;;;;10.85;8.48;;;25.30;91.10;;;;;;5096055;28;20035;-84
2021/06/13 04:13:39;;;;;;;11.65;8.18;;;25.30;91.20;;;;;;5078952;28;20058;-84
2021/06/13 04:16:07;;;;;;;10.43;8.02;;;25.30;91.20;;;;;;5096034;28;20032;-84
2021/06/13 04:18:36;;;;;;;9.68;7.47;;;25.20;91.10;;;;;;5097017;28;20111;-83
2021/06/13 04:21:08;;;;;;;10.48;8.32;;;25.20;91.10;;;;;;5097512;28;20028;-83
2021/06/13 04:23:34;;;;;;;9.07;8.13;;;25.20;91.10;;;;;;5101330;28;20090;-84
2021/06/13 04:26:00;;;;;;;8.90;7.05;;;25.20;91.10;;;;;;5067042;28;20036;-85
2021/06/13 04:28:26;;;;;;;8.65;7.40;;;25.20;91.10;;;;;;5103811;28;20028;-84
2021/06/13 04:31:04;;;;;;;9.13;7.22;;;25.20;91.10;;;;;;5101295;28;20085;-84
2021/06/13 04:33:30;;;;;;;8.98;7.13;;;25.20;91.10;;;;;;5095861;28;20036;-85
2021/06/13 04:35:56;;;;;;;8.35;6.80;;;25.30;91.20;;;;;;5095518;28;20055;-84
2021/06/13 04:38:22;;;;;;;8.68;6.97;;;25.20;91.10;;;;;;5095343;28;20046;-84
2021/06/13 04:40:48;;;;;;;7.50;6.60;;;25.20;91.10;;;;;;5095534;28;20036;-84
2021/06/13 04:43:13;;;;;;;7.68;6.57;;;25.30;91.20;;;;;;5095269;28;20115;-84
2021/06/13 04:45:39;;;;;;;7.35;6.38;;;25.20;91.10;;;;;;5061367;28;20040;-85
2021/06/13 04:48:06;;;;;;;7.90;6.28;;;25.30;91.20;;;;;;5061900;28;20039;-84
2021/06/13 04:50:41;;;;;;;5.97;5.38;;;25.20;91.10;;;;;;5096822;28;20111;-84
2021/06/13 04:53:47;;;;;;;7.30;5.82;;;25.30;91.20;;;;;;5095579;28;20031;-85
2021/06/13 04:56:24;;;;;;;7.28;6.03;;;25.30;91.20;;;;;;5095454;28;20119;-84
2021/06/13 04:58:49;;;;;;;5.80;5.20;;;25.30;91.20;;;;;;5079167;28;20032;-85
2021/06/13 05:01:15;;;;;;;6.13;5.13;;;25.30;91.30;;;;;;5095089;28;20054;-85
2021/06/13 05:03:44;;;;;;;5.97;4.93;;;25.30;91.20;;;;;;5077792;28;20460;-85
2021/06/13 05:06:11;;;;;;;5.28;4.78;;;25.30;91.20;;;;;;5094810;28;20576;-84
2021/06/13 05:08:39;;;;;;;5.90;4.95;;;25.30;91.20;;;;;;5094480;28;20127;-84
2021/06/13 05:11:04;;;;;;;5.80;4.93;;;25.30;91.20;;;;;;5094284;28;20032;-85
2021/06/13 05:13:30;;;;;;;5.22;4.63;;;25.30;91.20;;;;;;5061029;28;20031;-84
2021/06/13 05:15:56;;;;;;;5.57;4.68;;;25.30;91.20;;;;;;5094296;28;20378;-85
2021/06/13 05:18:21;;;;;;;5.70;4.63;;;25.30;91.20;;;;;;5061000;28;20028;-84
2021/06/13 05:20:52;;;;;;;5.72;4.50;;;25.30;91.20;;;;;;5077338;28;20077;-85
2021/06/13 05:23:19;;;;;;;5.68;4.65;;;25.30;91.10;;;;;;5094521;28;20035;-84
2021/06/13 05:25:45;;;;;;;5.57;4.63;;;25.30;91.10;;;;;;5060697;28;20039;-84
2021/06/13 05:28:11;;;;;;;6.53;5.20;;;25.30;91.10;;;;;;5094416;28;20123;-84
2021/06/13 05:30:38;;;;;;;4.88;4.38;;;25.30;91.10;;;;;;5095337;28;20065;-83
2021/06/13 05:33:04;;;;;;;5.82;5.00;;;25.30;91.10;;;;;;5094513;28;20024;-83
2021/06/13 05:35:30;;;;;;;6.10;5.03;;;25.40;91.20;;;;;;5095277;28;20035;-83
2021/06/13 05:37:56;;;;;;;6.43;5.13;;;25.30;91.10;;;;;;5060438;28;20028;-84
2021/06/13 05:40:24;;;;;;;6.22;5.35;;;25.30;91.10;;;;;;5095278;28;20028;-83
2021/06/13 05:42:53;;;;;;;6.22;5.38;;;25.40;91.20;;;;;;5093806;28;20028;-84
2021/06/13 05:45:22;;;;;;;7.38;6.15;;;25.40;91.20;;;;;;5077813;28;20105;-83
2021/06/13 05:47:48;;;;;;;7.85;6.40;;;25.40;91.20;;;;;;5093737;28;20028;-84
2021/06/13 05:50:14;;;;;;;7.22;6.30;;;25.40;91.20;;;;;;5077239;28;20086;-83
2021/06/13 05:52:41;;;;;;;8.30;6.75;;;25.40;91.20;;;;;;5094062;28;20024;-83
2021/06/13 05:55:08;;;;;;;8.25;6.57;;;25.40;91.20;;;;;;5093705;28;20032;-83
2021/06/13 05:57:34;;;;;;;8.93;7.03;;;25.40;91.20;;;;;;5093780;28;20435;-83
2021/06/13 06:00:03;;;;;;;7.50;6.38;;;25.40;91.20;;;;;;5093353;28;20058;-83
2021/06/13 06:02:29;;;;;;;7.65;6.53;;;25.40;91.20;;;;;;5093993;28;20084;-83
2021/06/13 06:04:55;;;;;;;7.68;6.47;;;25.40;91.20;;;;;;5083807;28;20095;-83
2021/06/13 06:07:20;;;;;;;8.27;6.78;;;25.50;91.20;;;;;;5096061;28;20061;-82
2021/06/13 06:09:46;;;;;;;8.52;6.35;;;25.50;91.20;;;;;;5094280;28;20032;-87
2021/06/13 06:12:12;;;;;;;6.82;6.13;;;25.50;91.20;;;;;;5097919;28;20043;-83
2021/06/13 06:14:39;;;;;;;6.70;5.78;;;25.50;91.20;;;;;;5060235;28;20056;-84
2021/06/13 06:17:05;;;;;;;9.00;7.10;;;25.50;91.20;;;;;;5076559;28;20032;-83
2021/06/13 06:19:31;;;;;;;6.35;5.68;;;25.50;91.20;;;;;;5060346;28;20054;-83
2021/06/13 06:21:57;;;;;;;8.30;6.45;;;25.50;91.20;;;;;;5059443;28;20462;-84
2021/06/13 06:24:22;;;;;;;7.03;6.25;;;25.50;91.20;;;;;;5076493;28;20106;-83
2021/06/13 06:26:49;;;;;;;7.18;6.07;;;25.50;91.20;;;;;;5094088;28;20371;-86
2021/06/13 06:29:15;;;;;;;7.15;6.22;;;25.50;91.20;;;;;;5076856;28;20039;-83
2021/06/13 06:31:41;;;;;;;6.95;5.70;;;25.50;91.20;;;;;;5094674;28;20039;-82
2021/06/13 06:34:07;;;;;;;7.03;5.65;;;25.50;91.20;;;;;;5075976;28;20031;-82
2021/06/13 06:36:32;;;;;;;6.35;5.32;;;25.50;91.20;;;;;;5059326;28;20029;-82
2021/06/13 06:38:58;;;;;;;6.10;5.45;;;25.50;91.20;;;;;;5093971;28;20028;-82
2021/06/13 06:41:24;;;;;;;5.68;4.60;;;25.50;91.20;;;;;;5043297;28;20035;-82
2021/06/13 06:43:51;;;;;;;5.20;4.43;;;25.50;91.10;;;;;;5059405;28;20118;-83
2021/06/13 06:46:16;;;;;;;5.38;4.47;;;25.50;91.00;;;;;;5075803;28;20032;-82
2021/06/13 06:48:43;;;;;;;4.60;3.90;;;25.60;91.00;;;;;;5075988;28;20112;-82
2021/06/13 06:51:09;;;;;;;4.22;3.78;;;25.50;91.00;;;;;;5042721;28;20028;-82
2021/06/13 06:53:34;;;;;;;3.33;3.03;;;25.50;90.90;;;;;;5042760;28;20078;-82
2021/06/13 06:56:00;;;;;;;4.85;3.80;;;25.50;90.90;;;;;;5042693;28;20086;-83
2021/06/13 06:58:26;;;;;;;4.88;3.70;;;25.60;90.90;;;;;;5042332;28;20498;-83
2021/06/13 07:00:51;;;;;;;4.30;3.38;;;25.50;90.80;;;;;;5093660;28;20470;-85
2021/06/13 07:03:17;;;;;;;4.28;3.28;;;25.60;90.80;;;;;;5093633;28;20035;-82
2021/06/13 07:05:42;;;;;;;4.30;3.10;;;25.50;90.80;;;;;;5058598;28;20040;-83
2021/06/13 07:08:08;;;;;;;3.53;3.10;;;25.50;90.70;;;;;;5058002;28;20420;-83
2021/06/13 07:10:34;;;;;;;3.10;2.78;;;25.50;90.70;;;;;;5042395;28;20132;-83
2021/06/13 07:13:00;;;;;;;3.40;2.95;;;25.50;90.70;;;;;;5093345;28;20487;-84
2021/06/13 07:15:26;;;;;;;4.00;3.00;;;25.50;90.70;;;;;;5059088;28;20111;-83
2021/06/13 07:17:53;;;;;;;2.60;2.40;;;25.50;90.60;;;;;;5093370;28;20054;-83
2021/06/13 07:20:19;;;;;;;3.17;2.58;;;25.60;90.40;;;;;;5041837;28;20390;-82
2021/06/13 07:22:46;;;;;;;2.58;2.38;;;25.50;90.30;;;;;;5058732;28;20028;-82
2021/06/13 07:25:12;;;;;;;2.97;2.50;;;25.50;90.10;;;;;;5075041;28;20122;-82
2021/06/13 07:27:40;;;;;;;2.85;2.17;;;25.50;90.00;;;;;;5093816;28;20100;-82
2021/06/13 07:30:15;;;;;;;2.55;2.35;;;25.50;89.90;;;;;;5074865;28;20123;-83
2021/06/13 07:32:41;;;;;;;2.47;2.08;;;25.50;89.70;;;;;;5075411;28;20028;-83
2021/06/13 07:35:09;;;;;;;2.25;2.00;;;25.50;89.80;;;;;;5074716;28;20028;-83
2021/06/13 07:37:35;;;;;;;2.75;1.80;;;25.50;89.80;;;;;;5075007;28;20028;-82
2021/06/13 07:40:00;;;;;;;2.55;2.17;;;25.50;89.70;;;;;;5075096;28;20489;-83
2021/06/13 07:42:26;;;;;;;2.47;1.80;;;25.50;89.70;;;;;;5075091;28;20029;-83
2021/06/13 07:44:52;;;;;;;2.60;2.05;;;25.50;89.40;;;;;;5059616;28;20385;-83
2021/06/13 07:47:18;;;;;;;2.55;1.88;;;25.50;89.10;;;;;;5098047;28;20050;-83
2021/06/13 07:49:45;;;;;;;2.20;1.70;;;25.50;89.00;;;;;;5075706;28;20035;-83
2021/06/13 07:52:11;;;;;;;2.72;1.65;;;25.50;88.80;;;;;;5074445;28;20039;-83
2021/06/13 07:54:37;;;;;;;2.78;2.17;;;25.40;88.60;;;;;;5075007;28;20531;-82
2021/06/13 07:57:03;;;;;;;2.75;1.90;;;25.40;88.40;;;;;;5074822;28;20033;-83
2021/06/13 07:59:28;;;;;;;2.45;1.63;;;25.40;88.30;;;;;;5058724;28;20054;-84
2021/06/13 08:01:54;;;;;;;2.63;1.95;;;25.40;88.30;;;;;;5075459;28;20466;-84
2021/06/13 08:04:20;;;;;;;3.65;1.60;;;25.40;88.20;;;;;;5058469;28;20032;-84
2021/06/13 08:06:46;;;;;;;2.65;1.75;;;25.40;88.20;;;;;;5093146;28;20028;-85
2021/06/13 08:09:12;;;;;;;2.08;1.50;;;25.30;88.60;;;;;;5074482;28;20143;-83
2021/06/13 08:11:37;;;;;;;2.47;1.73;;;25.30;88.30;;;;;;5075446;28;20056;-84
2021/06/13 08:14:04;;;;;;;3.65;2.05;;;25.30;88.80;;;;;;5058107;28;20470;-84
2021/06/13 08:16:29;;;;;;;3.70;1.90;;;25.30;89.10;;;;;;5075696;28;20032;-83
2021/06/13 08:18:55;;;;;;;3.22;2.08;;;25.30;89.40;;;;;;5093310;28;20123;-83
2021/06/13 08:21:21;;;;;;;3.00;1.90;;;25.30;89.60;;;;;;5057869;28;20032;-84
2021/06/13 08:23:47;;;;;;;2.97;2.22;;;25.30;89.90;;;;;;5092881;28;20030;-83
2021/06/13 08:26:13;;;;;;;2.65;1.80;;;25.30;89.80;;;;;;5041429;28;20044;-84
2021/06/13 08:28:38;;;;;;;2.13;1.80;;;25.30;89.80;;;;;;5041096;28;20074;-84
2021/06/13 08:31:04;;;;;;;3.20;2.13;;;25.30;90.00;;;;;;5075999;28;20040;-84
2021/06/13 08:33:30;;;;;;;2.58;1.90;;;25.30;89.60;;;;;;5097072;28;20035;-84
2021/06/13 08:35:55;;;;;;;3.42;1.90;;;25.30;89.50;;;;;;5061709;28;20043;-84
2021/06/13 08:38:23;;;;;;;3.80;2.33;;;25.20;89.10;;;;;;5061710;28;20089;-84
2021/06/13 08:40:49;;;;;;;3.17;2.03;;;25.30;88.90;;;;;;5062026;28;20032;-83
2021/06/13 08:43:15;;;;;;;3.13;1.90;;;25.20;88.60;;;;;;5061407;28;20327;-84
2021/06/13 08:45:41;;;;;;;2.25;1.90;;;25.20;88.60;;;;;;5096560;28;20058;-83
2021/06/13 08:48:08;;;;;;;2.85;1.67;;;25.20;88.60;;;;;;5077767;28;20478;-84
2021/06/13 08:50:35;;;;;;;2.80;1.70;;;25.20;88.60;;;;;;5077832;28;20038;-84
2021/06/13 08:53:02;;;;;;;2.58;2.08;;;25.20;88.30;;;;;;5061387;28;20508;-84
2021/06/13 08:55:29;;;;;;;2.38;1.50;;;25.20;87.90;;;;;;5077894;28;20032;-84
2021/06/13 08:57:56;;;;;;;1.95;1.67;;;25.20;87.80;;;;;;5077296;28;20121;-83
2021/06/13 09:00:26;;;;;;;1.88;1.60;;;25.20;87.90;;;;;;5077178;28;20024;-84
2021/06/13 09:02:52;;;;;;;3.03;1.85;;;25.20;87.90;;;;;;5095112;28;20470;-84
2021/06/13 09:05:22;;;;;;;1.70;1.50;;;25.20;87.70;;;;;;5095730;28;20042;-84
2021/06/13 09:07:57;;;;;;;1.85;1.67;;;25.20;87.60;;;;;;5078553;28;20031;-84
2021/06/13 09:10:27;;;;;;;2.22;1.80;;;25.20;87.20;;;;;;5077272;28;20093;-84
2021/06/13 09:13:14;;;;;;;2.40;1.67;;;25.10;86.90;;;;;;5077391;28;20024;-84
2021/06/13 09:16:00;;;;;;;2.47;1.58;;;25.20;86.90;;;;;;5077815;28;20032;-83
2021/06/13 09:18:35;;;;;;;2.08;1.52;;;25.10;86.90;;;;;;5077308;28;20085;-83
2021/06/13 09:21:07;;;;;;;1.90;1.70;;;25.10;86.90;;;;;;5077287;28;20031;-84
2021/06/13 09:23:35;;;;;;;1.77;1.42;;;25.10;86.70;;;;;;5078525;28;20024;-84
2021/06/13 09:26:12;;;;;;;2.05;1.40;;;25.10;86.40;;;;;;5064348;28;20036;-83
2021/06/13 09:28:41;;;;;;;1.75;1.50;;;25.10;86.10;;;;;;5077588;28;20024;-83
2021/06/13 09:31:18;;;;;;;2.25;1.42;;;25.10;86.10;;;;;;5077407;28;20032;-86
2021/06/13 09:33:44;;;;;;;1.75;1.25;;;25.10;86.00;;;;;;5077330;28;20566;-84
2021/06/13 09:36:11;;;;;;;1.65;1.40;;;25.10;86.00;;;;;;5076852;28;20036;-84
2021/06/13 09:38:44;;;;;;;1.55;1.30;;;25.10;86.20;;;;;;5077254;28;20020;-83
2021/06/13 09:41:17;;;;;;;1.80;1.40;;;25.10;86.10;;;;;;5070802;28;20032;-84
2021/06/13 09:43:45;;;;;;;1.95;1.50;;;25.00;85.90;;;;;;5075937;28;20040;-83
2021/06/13 09:46:19;;;;;;;1.75;1.45;;;25.10;85.90;;;;;;5060299;28;20036;-84
2021/06/13 09:48:49;;;;;;;2.25;1.50;;;25.10;85.90;;;;;;5077338;28;20431;-84
2021/06/13 09:51:19;;;;;;;1.80;1.40;;;25.10;86.30;;;;;;5076312;28;20182;-83
2021/06/13 09:53:49;;;;;;;1.85;1.35;;;25.10;86.70;;;;;;5076843;28;20506;-83
2021/06/13 09:56:25;;;;;;;1.30;1.20;;;25.10;87.00;;;;;;5059783;28;20028;-84
2021/06/13 09:58:56;;;;;;;1.20;1.10;;;25.10;86.90;;;;;;5076904;28;20031;-83
2021/06/13 10:01:24;;;;;;;1.70;1.20;;;25.10;87.10;;;;;;5094633;28;20094;-83
2021/06/13 10:03:50;;;;;;;1.60;1.30;;;25.10;87.50;;;;;;5060189;28;20032;-83
2021/06/13 10:06:18;;;;;;;1.23;1.05;;;25.10;87.20;;;;;;5076566;28;20386;-83
2021/06/13 10:08:45;;;;;;;1.75;1.35;;;25.20;86.80;;;;;;5093335;28;20044;-86
2021/06/13 10:11:11;;;;;;;2.38;1.48;;;25.10;86.70;;;;;;5043151;28;20069;-84
2021/06/13 10:13:41;;;;;;;1.92;1.48;;;25.10;86.50;;;;;;5094453;28;20126;-84
2021/06/13 10:16:08;;;;;;;2.03;1.55;;;25.10;86.50;;;;;;5076358;28;20488;-82
2021/06/13 10:18:39;;;;;;;2.47;1.52;;;25.10;86.80;;;;;;5076118;28;20458;-83
2021/06/13 10:21:14;;;;;;;2.42;1.60;;;25.10;86.60;;;;;;5077321;28;20081;-83
2021/06/13 10:23:45;;;;;;;1.45;1.35;;;25.20;86.40;;;;;;5076461;28;20028;-83
2021/06/13 10:26:11;;;;;;;1.65;1.40;;;25.10;86.30;;;;;;5076212;28;20036;-83
2021/06/13 10:28:37;;;;;;;2.83;1.50;;;25.20;86.50;;;;;;5094092;28;20016;-83
2021/06/13 10:31:03;;;;;;;1.95;1.50;;;25.10;86.40;;;;;;5093828;28;20486;-83
2021/06/13 10:33:29;;;;;;;1.83;1.65;;;25.10;86.40;;;;;;5059360;28;20025;-83
2021/06/13 10:35:56;;;;;;;1.83;1.50;;;25.10;86.40;;;;;;5059557;28;20054;-83
2021/06/13 10:38:22;;;;;;;2.03;1.80;;;25.10;86.40;;;;;;5075502;28;20020;-83
2021/06/13 10:40:48;;;;;;;2.70;1.70;;;25.10;86.10;;;;;;5057995;28;20031;-84
2021/06/13 10:43:27;;;;;;;1.92;1.60;;;25.10;86.10;;;;;;5075987;28;20466;-84
2021/06/13 10:46:06;;;;;;;1.75;1.60;;;25.10;86.30;;;;;;5090233;28;20036;-84
2021/06/13 10:48:39;;;;;;;2.88;1.90;;;25.10;86.40;;;;;;5075612;28;20031;-84
2021/06/13 10:51:27;;;;;;;1.85;1.45;;;25.10;86.50;;;;;;5075981;28;20100;-83
2021/06/13 10:53:54;;;;;;;1.92;1.58;;;25.10;86.60;;;;;;5093910;28;20093;-83
2021/06/13 10:56:25;;;;;;;2.28;1.60;;;25.10;86.90;;;;;;5058710;28;20185;-84
2021/06/13 10:58:59;;;;;;;1.67;1.20;;;25.10;87.10;;;;;;5093934;28;20077;-84
2021/06/13 11:01:29;;;;;;;1.92;1.40;;;25.10;87.30;;;;;;5077212;28;20028;-83
2021/06/13 11:04:06;;;;;;;1.65;1.38;;;25.10;87.60;;;;;;5081772;28;20028;-83
2021/06/13 11:06:48;;;;;;;1.67;1.48;;;25.20;87.50;;;;;;5075610;28;20474;-84
2021/06/13 11:09:15;;;;;;;2.00;1.60;;;25.20;87.40;;;;;;5094286;28;20040;-83
2021/06/13 11:11:45;;;;;;;1.27;1.17;;;25.20;87.50;;;;;;5042875;28;20032;-84
2021/06/13 11:14:27;;;;;;;1.60;1.50;;;25.20;87.50;;;;;;5059699;28;20028;-84
2021/06/13 11:16:56;;;;;;;1.30;1.20;;;25.20;87.40;;;;;;5059005;28;20076;-84
2021/06/13 11:19:30;;;;;;;2.10;1.55;;;25.20;87.60;;;;;;5093625;28;20110;-84
2021/06/13 11:22:19;;;;;;;;;;;25.20;87.90;;;;;;5075781;28;20024;-83
2021/06/13 11:24:45;;;;;;;1.98;1.58;;;25.20;87.60;;;;;;5064800;28;19908;-83
2021/06/13 11:27:11;;;;;;;1.92;1.70;;;25.10;86.90;;;;;;5093625;28;20447;-84
2021/06/13 11:29:58;;;;;;;2.75;1.75;;;25.10;86.70;;;;;;5075270;28;20020;-84
2021/06/13 11:32:49;;;;;;;1.83;1.60;;;25.20;86.70;;;;;;5092565;28;20517;-85
2021/06/13 11:35:36;;;;;;;1.80;1.50;;;25.20;86.60;;;;;;5075234;28;20077;-84
2021/06/13 11:38:14;;;;;;;2.38;1.30;;;25.10;86.10;;;;;;5093328;28;20024;-84
2021/06/13 11:40:52;;;;;;;1.83;1.58;;;25.10;85.90;;;;;;5074942;28;20117;-84
2021/06/13 11:43:20;;;;;;;2.00;1.73;;;25.20;85.80;;;;;;5075317;28;20089;-85
2021/06/13 11:45:56;;;;;;;1.50;1.40;;;25.10;85.80;;;;;;5092941;28;20089;-84
2021/06/13 11:48:26;;;;;;;1.98;1.52;;;25.10;86.10;;;;;;5075042;28;20031;-86
2021/06/13 11:51:13;;;;;;;2.03;1.55;;;25.10;85.90;;;;;;5093325;28;20026;-84
2021/06/13 11:54:00;;;;;;;2.00;1.50;;;25.10;85.90;;;;;;5074585;28;20077;-85
2021/06/13 11:56:35;;;;;;;2.30;1.58;;;25.10;86.20;;;;;;5074658;28;20031;-85
2021/06/13 11:59:11;;;;;;;1.45;1.20;;;25.10;86.70;;;;;;5092709;28;20023;-85
2021/06/13 12:01:38;;;;;;;1.60;1.27;;;25.20;86.80;;;;;;5074600;28;20079;-85
2021/06/13 12:04:05;;;;;;;1.23;1.00;;;25.20;86.70;;;;;;5058335;28;20038;-85
2021/06/13 12:06:34;;;;;;;2.30;1.30;;;25.20;86.90;;;;;;5076493;28;20103;-85
2021/06/13 12:09:04;;;;;;;1.42;1.23;;;25.20;87.20;;;;;;5078740;28;20052;-84
2021/06/13 12:11:32;;;;;;;1.60;1.00;;;25.20;87.20;;;;;;5062545;28;20059;-85
2021/06/13 12:14:19;;;;;;;1.40;1.17;;;25.20;87.20;;;;;;5097249;28;20109;-84
2021/06/13 12:16:45;;;;;;;1.80;1.30;;;25.20;87.00;;;;;;5077588;28;20130;-85
2021/06/13 12:19:11;;;;;;;1.63;1.10;;;25.20;86.70;;;;;;5079104;28;20032;-84
2021/06/13 12:21:37;;;;;;;2.10;1.40;;;25.20;86.60;;;;;;5078811;28;20093;-84
2021/06/13 12:24:19;;;;;;;1.40;1.10;;;25.20;86.60;;;;;;5078713;28;20466;-84
2021/06/13 12:29:30;;;;;;;1.63;1.00;;;25.20;86.70;;;;;;5081527;28;20120;-84
2021/06/13 12:31:56;;;;;;;0.88;0.80;;;25.30;86.80;;;;;;5078549;28;20028;-86
2021/06/13 12:34:24;;;;;;;1.40;1.23;;;25.20;86.80;;;;;;5092313;28;20020;-84
2021/06/13 12:36:54;;;;;;;1.10;1.00;;;25.20;86.80;;;;;;5058004;28;20029;-85
2021/06/13 12:39:28;;;;;;;1.23;0.90;;;25.30;86.80;;;;;;5076882;28;20032;-85
2021/06/13 12:42:10;;;;;;;1.90;1.13;;;25.20;86.70;;;;;;5042908;28;20063;-85
2021/06/13 12:44:37;;;;;;;1.10;1.00;;;25.30;87.10;;;;;;5076312;28;20115;-85
2021/06/13 12:47:08;;;;;;;1.92;1.35;;;25.30;87.90;;;;;;5058077;28;20471;-84
2021/06/13 12:49:55;;;;;;;1.98;1.20;;;25.30;88.70;;;;;;5075779;28;20025;-85
2021/06/13 12:52:21;;;;;;;2.90;1.25;;;25.30;89.50;;;;;;5058384;28;20025;-85